Time;durP1;ratioP1;P1;durP2;ratioP2;P2;SDS_P1;SDS_P2;PMS_P1;PMS_P2;Temp;Humidity;BMP_temperature;BMP_pressure;BME280_temperature;BME280_humidity;BME280_pressure;Samples;Min_cycle;Max_cycle;Signal;HPM_P1;HPM_P2
2021/05/14 00:01:10;;;;;;;;;;;;;;;14.86;56.41;99377.99;1737676;81;20239;-75
2021/05/14 00:03:38;;;;;;;;;;;;;;;14.84;56.34;99374.17;1737990;81;20183;-75
2021/05/14 00:06:04;;;;;;;;;;;;;;;14.83;56.48;99367.28;1756466;79;20732;-75
2021/05/14 00:08:30;;;;;;;;;;;;;;;14.82;56.56;99363.46;1730258;82;20213;-75
2021/05/14 00:10:56;;;;;;;;;;;;;;;14.76;56.62;99364.62;1727576;81;20192;-75
2021/05/14 00:13:23;;;;;;;;;;;;;;;14.72;56.56;99368.31;1759528;80;20175;-75
2021/05/14 00:15:49;;;;;;;;;;;;;;;14.71;56.60;99364.48;1739024;80;20192;-75
2021/05/14 00:18:16;;;;;;;;;;;;;;;14.66;56.73;99364.73;1741437;81;20156;-76
2021/05/14 00:20:42;;;;;;;;;;;;;;;14.66;56.97;99369.09;1740128;81;20150;-76
2021/05/14 00:23:10;;;;;;;;;;;;;;;14.68;57.11;99367.25;1749986;80;20639;-76
2021/05/14 00:25:36;;;;;;;;;;;;;;;14.71;57.06;99373.59;1721958;82;20205;-76
2021/05/14 00:28:02;;;;;;;;;;;;;;;14.70;57.07;99374.52;1759109;81;20159;-75
2021/05/14 00:30:28;;;;;;;;;;;;;;;14.69;57.02;99372.84;1745157;81;20591;-75
2021/05/14 00:32:54;;;;;;;;;;;;;;;14.63;57.25;99379.20;1742430;80;20229;-75
2021/05/14 00:35:21;;;;;;;;;;;;;;;14.65;57.35;99378.66;1743156;79;20188;-75
2021/05/14 00:37:47;;;;;;;;;;;;;;;14.67;57.43;99382.48;1727035;80;20186;-75
2021/05/14 00:40:13;;;;;;;;;;;;;;;14.67;57.49;99379.42;1744269;81;20147;-75
2021/05/14 00:42:41;;;;;;;;;;;;;;;14.64;57.29;99387.84;1741393;80;20190;-75
2021/05/14 00:45:08;;;;;;;;;;;;;;;14.57;57.43;99384.27;1729898;81;20192;-75
2021/05/14 00:47:34;;;;;;;;;;;;;;;14.54;57.46;99384.45;1720426;82;20172;-75
2021/05/14 00:50:01;;;;;;;;;;;;;;;14.53;57.69;99386.67;1747014;81;20171;-75
2021/05/14 00:52:27;;;;;;;;;;;;;;;14.54;57.82;99384.45;1745610;80;20183;-75
2021/05/14 00:54:54;;;;;;;;;;;;;;;14.56;57.74;99381.73;1753317;79;20961;-75
2021/05/14 00:57:20;;;;;;;;;;;;;;;14.54;57.84;99384.45;1741533;80;20216;-75
2021/05/14 00:59:48;;;;;;;;;;;;;;;14.52;57.79;99388.89;1731166;80;20865;-75
2021/05/14 01:02:16;;;;;;;;;;;;;;;14.45;57.88;99390.59;1736262;80;20259;-75
2021/05/14 01:04:43;;;;;;;;;;;;;;;14.41;57.96;99386.00;1746733;81;20183;-75
2021/05/14 01:07:10;;;;;;;;;;;;;;;14.38;58.02;99392.63;1733716;81;20573;-76
2021/05/14 01:09:39;;;;;;;;;;;;;;;14.39;58.15;99389.56;1723290;82;20209;-76
2021/05/14 01:12:07;;;;;;;;;;;;;;;14.37;58.05;99389.64;1741819;82;20183;-76
2021/05/14 01:14:33;;;;;;;;;;;;;;;14.37;58.32;99383.14;1735252;80;20206;-76
2021/05/14 01:16:59;;;;;;;;;;;;;;;14.39;58.38;99389.56;1728353;80;20262;-75
2021/05/14 01:19:25;;;;;;;;;;;;;;;14.37;58.36;99379.24;1737027;80;20189;-75
2021/05/14 01:21:51;;;;;;;;;;;;;;;14.35;58.35;99388.88;1742921;80;20194;-75
2021/05/14 01:24:17;;;;;;;;;;;;;;;14.34;58.52;99387.66;1742032;80;20249;-75
2021/05/14 01:26:47;;;;;;;;;;;;;;;14.37;58.66;99383.60;1753998;79;20276;-75
2021/05/14 01:29:13;;;;;;;;;;;;;;;14.41;58.69;99392.93;1741344;80;20198;-75
2021/05/14 01:31:40;;;;;;;;;;;;;;;14.40;58.61;99384.28;1738472;80;20218;-75
2021/05/14 01:34:07;;;;;;;;;;;;;;;14.39;58.58;99387.80;1750956;80;20155;-75
2021/05/14 01:36:39;;;;;;;;;;;;;;;14.34;58.76;99392.40;1745354;81;20161;-75
2021/05/14 01:39:11;;;;;;;;;;;;;;;14.28;58.83;99390.11;1729684;82;20196;-75
2021/05/14 01:41:46;;;;;;;;;;;;;;;14.25;58.81;99392.41;1732999;81;20171;-75
2021/05/14 01:44:12;;;;;;;;;;;;;;;14.27;59.03;99390.19;1739718;81;20558;-76
2021/05/14 01:46:38;;;;;;;;;;;;;;;14.28;58.97;99388.81;1748237;80;20172;-75
2021/05/14 01:49:04;;;;;;;;;;;;;;;14.27;58.58;99391.03;1751556;80;20175;-75
2021/05/14 01:51:30;;;;;;;;;;;;;;;14.24;59.12;99397.69;1754284;80;20143;-75
2021/05/14 01:53:56;;;;;;;;;;;;;;;14.27;59.17;99396.23;1743067;80;20194;-75
2021/05/14 01:56:22;;;;;;;;;;;;;;;14.31;59.07;99399.52;1736397;80;20691;-75
2021/05/14 01:58:51;;;;;;;;;;;;;;;14.29;59.31;99399.59;1739380;80;20198;-75
2021/05/14 02:01:18;;;;;;;;;;;;;;;14.28;59.25;99399.67;1739067;80;20199;-75
2021/05/14 02:03:45;;;;;;;;;;;;;;;14.24;59.27;99395.92;1744474;81;20173;-75
2021/05/14 02:06:11;;;;;;;;;;;;;;;14.22;59.32;99398.22;1731959;81;20175;-75
2021/05/14 02:08:38;;;;;;;;;;;;;;;14.18;59.29;99400.59;1749317;80;20163;-75
2021/05/14 02:11:04;;;;;;;;;;;;;;;14.18;59.64;99399.29;1742404;80;20163;-75
2021/05/14 02:13:32;;;;;;;;;;;;;;;14.23;59.65;99402.05;1743198;79;20177;-75
2021/05/14 02:15:58;;;;;;;;;;;;;;;14.22;59.58;99397.77;1743575;80;20175;-76
2021/05/14 02:18:24;;;;;;;;;;;;;;;14.22;59.68;99403.42;1753168;80;20190;-75
2021/05/14 02:20:50;;;;;;;;;;;;;;;14.22;59.72;99407.32;1748749;80;20143;-75
2021/05/14 02:23:16;;;;;;;;;;;;;;;14.22;59.82;99409.92;1747798;81;20821;-75
2021/05/14 02:25:42;;;;;;;;;;;;;;;14.24;59.82;99410.68;1716575;82;20154;-75
2021/05/14 02:28:11;;;;;;;;;;;;;;;14.25;59.86;99413.20;1737570;81;20170;-75
2021/05/14 02:30:37;;;;;;;;;;;;;;;14.25;59.90;99413.66;1730544;81;20182;-75
2021/05/14 02:33:04;;;;;;;;;;;;;;;14.24;59.88;99401.58;1730025;80;172596;-75
2021/05/14 02:35:30;;;;;;;;;;;;;;;14.22;59.86;99402.12;1741008;82;20538;-75
2021/05/14 02:37:57;;;;;;;;;;;;;;;14.19;59.99;99400.52;1746897;81;20173;-75
2021/05/14 02:40:22;;;;;;;;;;;;;;;14.19;60.00;99401.81;1735045;82;20255;-75
2021/05/14 02:42:49;;;;;;;;;;;;;;;14.18;60.01;99408.39;1724382;82;20292;-75
2021/05/14 02:45:34;;;;;;;;;;;;;;;14.18;60.08;99409.69;1710898;83;20563;-75
2021/05/14 02:48:01;;;;;;;;;;;;;;;14.14;59.98;99407.70;1742526;81;20201;-75
2021/05/14 02:50:27;;;;;;;;;;;;;;;14.11;60.14;99414.81;1727679;81;20309;-75
2021/05/14 02:52:53;;;;;;;;;;;;;;;14.07;60.24;99405.02;1721595;82;20852;-75
2021/05/14 02:55:19;;;;;;;;;;;;;;;14.07;60.35;99418.02;1739792;82;20288;-75
2021/05/14 02:57:46;;;;;;;;;;;;;;;14.10;60.28;99415.73;1732332;82;20892;-75
2021/05/14 03:00:22;;;;;;;;;;;;;;;14.09;60.42;99417.48;1739664;81;20294;-75
2021/05/14 03:02:48;;;;;;;;;;;;;;;14.04;60.27;99412.97;1741202;81;20190;-76
2021/05/14 03:05:18;;;;;;;;;;;;;;;14.02;60.32;99411.39;1738298;82;20301;-76
2021/05/14 03:07:44;;;;;;;;;;;;;;;14.00;60.53;99410.17;1719240;81;20211;-75
2021/05/14 03:10:11;;;;;;;;;;;;;;;14.01;60.47;99412.31;1737725;82;20218;-75
2021/05/14 03:12:38;;;;;;;;;;;;;;;14.01;60.67;99412.31;1744184;80;20251;-75
2021/05/14 03:15:06;;;;;;;;;;;;;;;14.04;60.67;99408.23;1742838;82;20797;-75
2021/05/14 03:17:32;;;;;;;;;;;;;;;14.03;60.75;99408.72;1746183;80;20157;-75
2021/05/14 03:19:59;;;;;;;;;;;;;;;14.04;60.73;99408.23;1745217;80;20429;-75
2021/05/14 03:22:25;;;;;;;;;;;;;;;14.03;60.78;99407.42;1741249;81;20433;-75
2021/05/14 03:24:53;;;;;;;;;;;;;;;14.04;60.82;99399.13;1732850;81;20162;-76
2021/05/14 03:27:19;;;;;;;;;;;;;;;14.02;60.89;99409.64;1742421;81;20160;-76
2021/05/14 03:29:46;;;;;;;;;;;;;;;14.06;60.88;99412.89;1740959;82;20183;-76
2021/05/14 03:32:14;;;;;;;;;;;;;;;14.06;60.98;99418.09;1736718;81;20186;-76
2021/05/14 03:34:40;;;;;;;;;;;;;;;14.06;61.03;99418.94;1742399;81;20176;-76
2021/05/14 03:37:06;;;;;;;;;;;;;;;14.12;61.11;99426.43;1742551;82;20176;-76
2021/05/14 03:39:38;;;;;;;;;;;;;;;14.15;60.97;99418.48;1742625;81;20179;-76
2021/05/14 03:42:14;;;;;;;;;;;;;;;14.18;61.11;99426.12;1739817;82;20187;-76
2021/05/14 03:44:34;;;;;;;;;;;;;;;14.19;61.09;99430.87;1727846;82;20144;-76
2021/05/14 03:47:04;;;;;;;;;;;;;;;14.21;61.17;99433.77;1741858;82;20703;-76
2021/05/14 03:49:30;;;;;;;;;;;;;;;14.25;61.22;99434.01;1742496;81;20572;-76
2021/05/14 03:51:56;;;;;;;;;;;;;;;14.28;61.23;99433.47;1733688;81;20139;-76
2021/05/14 03:54:22;;;;;;;;;;;;;;;14.29;61.23;99433.39;1742618;81;20160;-76
2021/05/14 03:56:49;;;;;;;;;;;;;;;14.31;61.25;99431.56;1742004;81;20151;-76
2021/05/14 03:59:16;;;;;;;;;;;;;;;14.33;61.31;99432.78;1735505;81;20167;-76
2021/05/14 04:01:42;;;;;;;;;;;;;;;14.29;60.87;99436.45;1741830;81;20515;-76
2021/05/14 04:04:08;;;;;;;;;;;;;;;14.24;61.13;99440.58;1740752;82;20543;-76
2021/05/14 04:06:35;;;;;;;;;;;;;;;14.16;61.29;99431.02;1729344;81;20176;-76
2021/05/14 04:09:01;;;;;;;;;;;;;;;14.15;61.32;99431.94;1739764;81;20188;-76
2021/05/14 04:16:58;;;;;;;;;;;;;;;14.07;61.50;99442.71;1741953;81;20176;-75
2021/05/14 04:19:27;;;;;;;;;;;;;;;14.09;61.58;99447.84;1730851;81;20185;-75
2021/05/14 04:21:54;;;;;;;;;;;;;;;14.09;61.58;99438.28;1741605;81;20175;-75
2021/05/14 04:24:22;;;;;;;;;;;;;;;14.08;61.64;99440.50;1747117;80;20160;-75
2021/05/14 04:26:49;;;;;;;;;;;;;;;14.10;61.71;99441.27;1749573;80;20259;-75
2021/05/14 04:29:16;;;;;;;;;;;;;;;14.15;61.74;99434.53;1740956;81;20210;-75
2021/05/14 04:31:43;;;;;;;;;;;;;;;14.15;61.74;99439.28;1731673;81;20179;-75
2021/05/14 04:34:11;;;;;;;;;;;;;;;14.13;61.80;99438.97;1746818;81;20228;-75
2021/05/14 04:36:38;;;;;;;;;;;;;;;14.17;61.72;99440.50;1753504;81;20240;-75
2021/05/14 04:39:06;;;;;;;;;;;;;;;14.15;61.93;99438.44;1736404;81;20169;-74
2021/05/14 04:41:34;;;;;;;;;;;;;;;14.18;61.72;99442.19;1738775;82;20203;-74
2021/05/14 04:44:00;;;;;;;;;;;;;;;14.19;61.49;99442.56;1730286;82;20163;-74
2021/05/14 04:46:27;;;;;;;;;;;;;;;14.15;61.95;99448.38;1735786;82;20551;-73
2021/05/14 04:48:55;;;;;;;;;;;;;;;14.19;62.09;99448.61;1740486;81;20644;-73
2021/05/14 04:51:21;;;;;;;;;;;;;;;14.23;62.14;99449.30;1747269;80;20191;-73
2021/05/14 04:53:48;;;;;;;;;;;;;;;14.28;62.18;99445.17;1750261;81;21101;-76
2021/05/14 04:56:15;;;;;;;;;;;;;;;14.32;62.17;99446.24;1742172;80;20531;-76
2021/05/14 04:58:42;;;;;;;;;;;;;;;14.32;62.15;99448.00;1732083;81;20203;-77
2021/05/14 05:01:09;;;;;;;;;;;;;;;14.33;62.29;99447.93;1737063;81;20557;-77
2021/05/14 05:03:35;;;;;;;;;;;;;;;14.35;62.17;99446.55;1734419;82;20299;-77
2021/05/14 05:06:03;;;;;;;;;;;;;;;14.30;62.18;99454.58;1726181;82;20221;-78
2021/05/14 05:08:29;;;;;;;;;;;;;;;14.27;62.26;99449.53;1715550;82;20243;-80
2021/05/14 05:10:55;;;;;;;;;;;;;;;14.29;62.38;99454.66;1731076;82;20291;-77
2021/05/14 05:13:22;;;;;;;;;;;;;;;14.25;62.23;99452.67;1732066;81;20186;-78
2021/05/14 05:15:51;;;;;;;;;;;;;;;14.25;62.45;99457.87;1732459;82;20271;-77
2021/05/14 05:18:17;;;;;;;;;;;;;;;14.23;62.38;99458.40;1733075;82;20543;-76
2021/05/14 05:20:43;;;;;;;;;;;;;;;14.24;62.41;99458.33;1734568;81;20179;-80
2021/05/14 05:23:09;;;;;;;;;;;;;;;14.24;62.60;99466.58;1733807;82;20169;-77
2021/05/14 05:25:35;;;;;;;;;;;;;;;14.29;62.70;99456.80;1741301;82;20159;-77
2021/05/14 05:28:03;;;;;;;;;;;;;;;14.35;62.74;99459.09;1742319;81;20171;-78
2021/05/14 05:30:29;;;;;;;;;;;;;;;14.38;62.58;99461.55;1737259;82;20189;-77
2021/05/14 05:32:55;;;;;;;;;;;;;;;14.40;62.69;99460.17;1741265;82;20163;-78
2021/05/14 05:35:21;;;;;;;;;;;;;;;14.42;62.63;99459.20;1739154;82;20163;-78
2021/05/14 05:37:48;;;;;;;;;;;;;;;14.41;62.34;99464.02;1741479;82;20183;-77
2021/05/14 05:40:14;;;;;;;;;;;;;;;14.40;62.69;99467.52;1738875;82;21156;-78
2021/05/14 05:42:41;;;;;;;;;;;;;;;14.45;62.79;99465.55;1733943;81;20235;-78
2021/05/14 05:45:07;;;;;;;;;;;;;;;14.47;62.83;99462.88;1716106;82;20211;-78
2021/05/14 05:47:35;;;;;;;;;;;;;;;14.54;62.91;99466.85;1733399;81;20259;-77
2021/05/14 05:50:03;;;;;;;;;;;;;;;14.63;62.90;99473.32;1739480;82;20211;-78
2021/05/14 05:52:29;;;;;;;;;;;;;;;14.68;62.88;99472.63;1717555;82;20180;-78
2021/05/14 05:54:55;;;;;;;;;;;;;;;14.77;62.94;99478.20;1740846;82;20180;-78
2021/05/14 05:57:21;;;;;;;;;;;;;;;14.86;62.87;99476.89;1738702;81;20180;-78
2021/05/14 05:59:47;;;;;;;;;;;;;;;14.90;62.66;99479.26;1741656;82;20184;-79
2021/05/14 06:02:13;;;;;;;;;;;;;;;14.90;62.80;99475.36;1737613;82;20179;-77
2021/05/14 06:04:39;;;;;;;;;;;;;;;14.97;62.93;99481.55;1740770;81;20618;-79
2021/05/14 06:07:06;;;;;;;;;;;;;;;15.03;62.85;99483.37;1740235;82;20226;-77
2021/05/14 06:09:33;;;;;;;;;;;;;;;15.03;62.74;99485.13;1714968;82;20197;-77
2021/05/14 06:12:00;;;;;;;;;;;;;;;15.02;62.81;99488.66;1738260;82;20194;-78
2021/05/14 06:14:27;;;;;;;;;;;;;;;15.03;62.79;99485.98;1734551;81;20342;-78
2021/05/14 06:16:56;;;;;;;;;;;;;;;15.04;62.83;99483.75;1738259;82;20366;-78
2021/05/14 06:19:30;;;;;;;;;;;;;;;15.05;62.96;99482.83;1735731;81;20165;-78
2021/05/14 06:21:54;;;;;;;;;;;;;;;15.08;63.01;99485.24;1736481;82;20686;-77
2021/05/14 06:24:20;;;;;;;;;;;;;;;15.13;63.03;99491.05;1745065;80;20171;-77
2021/05/14 06:26:47;;;;;;;;;;;;;;;15.15;62.89;99485.77;1740035;82;20249;-77
2021/05/14 06:29:14;;;;;;;;;;;;;;;15.14;62.93;99494.49;1736085;82;20603;-77
2021/05/14 06:31:40;;;;;;;;;;;;;;;15.13;62.98;99492.81;1736112;80;20170;-77
2021/05/14 06:34:06;;;;;;;;;;;;;;;15.15;63.04;99490.97;1737669;82;20253;-78
2021/05/14 06:36:33;;;;;;;;;;;;;;;15.11;62.92;99494.20;1747169;80;20199;-77
2021/05/14 06:39:00;;;;;;;;;;;;;;;15.09;63.10;99495.20;1741003;81;20434;-78
2021/05/14 06:41:29;;;;;;;;;;;;;;;15.04;63.05;99492.86;1718642;82;20573;-77
2021/05/14 06:43:57;;;;;;;;;;;;;;;15.06;63.12;99492.33;1738275;82;20212;-77
2021/05/14 06:46:23;;;;;;;;;;;;;;;15.06;63.16;99495.39;1741924;81;20559;-77
2021/05/14 06:48:50;;;;;;;;;;;;;;;15.05;63.07;99495.84;1735414;82;20555;-77
2021/05/14 06:51:16;;;;;;;;;;;;;;;15.04;63.24;99499.38;1751343;80;20294;-77
2021/05/14 06:53:47;;;;;;;;;;;;;;;15.03;63.14;99501.59;1740942;82;20204;-78
2021/05/14 06:56:13;;;;;;;;;;;;;;;15.03;63.21;99504.66;1743448;80;20530;-77
2021/05/14 06:58:39;;;;;;;;;;;;;;;14.98;63.22;99508.80;1742467;82;20225;-78
2021/05/14 07:01:08;;;;;;;;;;;;;;;14.96;63.30;99513.25;1750336;80;20254;-79
2021/05/14 07:03:35;;;;;;;;;;;;;;;14.95;63.34;99512.86;1738784;82;20324;-77
2021/05/14 07:06:01;;;;;;;;;;;;;;;14.94;63.39;99512.94;1750878;80;20203;-77
2021/05/14 07:08:28;;;;;;;;;;;;;;;14.94;63.24;99509.88;1749364;79;20266;-78
2021/05/14 07:10:54;;;;;;;;;;;;;;;14.96;63.26;99511.10;1742624;82;20619;-78
2021/05/14 07:13:20;;;;;;;;;;;;;;;14.94;63.44;99515.08;1747783;80;20210;-79
2021/05/14 07:15:50;;;;;;;;;;;;;;;15.04;63.64;99517.59;1742495;82;20251;-77
2021/05/14 07:18:16;;;;;;;;;;;;;;;15.18;63.50;99509.88;1736173;80;21148;-79
2021/05/14 07:20:42;;;;;;;;;;;;;;;15.31;63.56;99521.80;1744691;82;20893;-78
2021/05/14 07:23:08;;;;;;;;;;;;;;;15.38;63.28;99518.41;1745994;80;20582;-78
2021/05/14 07:25:34;;;;;;;;;;;;;;;15.39;63.26;99524.00;1749530;79;20180;-78
2021/05/14 07:28:00;;;;;;;;;;;;;;;15.41;63.42;99523.00;1739281;81;20563;-78
2021/05/14 07:30:26;;;;;;;;;;;;;;;15.48;63.45;99532.62;1753524;80;20430;-77
2021/05/14 07:32:52;;;;;;;;;;;;;;;15.52;63.34;99536.75;1752807;79;20143;-77
2021/05/14 07:35:18;;;;;;;;;;;;;;;15.52;63.37;99531.55;1744306;82;20819;-76
2021/05/14 07:37:44;;;;;;;;;;;;;;;15.50;63.26;99536.84;1753643;80;20171;-78
2021/05/14 07:40:13;;;;;;;;;;;;;;;15.54;63.35;99531.00;1744193;81;20488;-77
2021/05/14 07:42:39;;;;;;;;;;;;;;;15.64;63.42;99534.80;1754353;80;20148;-78
2021/05/14 07:45:06;;;;;;;;;;;;;;;15.71;63.40;99537.45;1741686;82;20147;-78
2021/05/14 07:47:32;;;;;;;;;;;;;;;15.77;63.26;99538.89;1750444;80;20171;-77
2021/05/14 07:50:00;;;;;;;;;;;;;;;15.77;63.22;99539.73;1744433;82;20616;-77
2021/05/14 07:52:26;;;;;;;;;;;;;;;15.77;63.31;99539.73;1747215;80;20469;-77
2021/05/14 07:54:53;;;;;;;;;;;;;;;15.83;63.35;99543.30;1745474;82;20193;-78
2021/05/14 07:57:19;;;;;;;;;;;;;;;15.86;63.32;99545.74;1749136;80;20171;-77
2021/05/14 07:59:45;;;;;;;;;;;;;;;15.88;63.31;99549.11;1743927;82;20724;-77
2021/05/14 08:02:11;;;;;;;;;;;;;;;15.86;63.09;99557.94;1743007;82;20810;-78
2021/05/14 08:04:37;;;;;;;;;;;;;;;15.75;63.12;99553.30;1742792;80;20247;-78
2021/05/14 08:07:03;;;;;;;;;;;;;;;15.69;63.06;99554.09;1742790;81;20250;-76
2021/05/14 08:09:29;;;;;;;;;;;;;;;15.60;63.24;99555.42;1741046;81;20411;-77
2021/05/14 08:11:55;;;;;;;;;;;;;;;15.56;63.30;99555.21;1739349;82;20555;-77
2021/05/14 08:14:28;;;;;;;;;;;;;;;15.49;63.17;99561.67;1739725;81;20317;-78
2021/05/14 08:16:54;;;;;;;;;;;;;;;15.42;63.37;99561.61;1738952;81;20212;-77
2021/05/14 08:19:20;;;;;;;;;;;;;;;15.39;63.32;99566.52;1731217;80;20517;-78
2021/05/14 08:21:46;;;;;;;;;;;;;;;15.33;63.48;99565.53;1743897;82;20280;-78
2021/05/14 08:24:13;;;;;;;;;;;;;;;15.34;63.56;99564.61;1734385;81;20249;-78
2021/05/14 08:26:40;;;;;;;;;;;;;;;15.37;63.59;99561.84;1729793;80;20151;-77
2021/05/14 08:29:07;;;;;;;;;;;;;;;15.48;63.69;99571.25;1745641;82;20165;-78
2021/05/14 08:31:39;;;;;;;;;;;;;;;15.63;63.75;99566.98;1755536;80;20783;-77
2021/05/14 08:34:10;;;;;;;;;;;;;;;15.83;63.69;99567.23;1751310;81;20529;-77
2021/05/14 08:36:36;;;;;;;;;;;;;;;15.91;63.41;99565.51;1747906;81;20196;-78
2021/05/14 08:39:03;;;;;;;;;;;;;;;15.96;63.49;99566.09;1757440;80;20489;-78
2021/05/14 08:41:29;;;;;;;;;;;;;;;16.05;63.33;99570.34;1743427;82;20201;-78
2021/05/14 08:43:56;;;;;;;;;;;;;;;16.06;63.25;99569.42;1752740;80;20155;-78
2021/05/14 08:46:26;;;;;;;;;;;;;;;16.06;63.28;99570.73;1747334;81;20451;-78
2021/05/14 08:48:54;;;;;;;;;;;;;;;16.09;63.43;99580.99;1756578;80;20265;-77
2021/05/14 08:51:26;;;;;;;;;;;;;;;16.15;63.36;99574.10;1746497;81;20189;-77
2021/05/14 08:53:51;;;;;;;;;;;;;;;16.19;63.30;99576.08;1756484;80;20143;-77
2021/05/14 08:56:17;;;;;;;;;;;;;;;16.20;63.18;99581.20;1740891;82;20268;-77
2021/05/14 08:58:44;;;;;;;;;;;;;;;16.19;63.36;99582.14;1752284;80;20636;-76
2021/05/14 09:01:10;;;;;;;;;;;;;;;16.21;63.30;99582.05;1746209;81;20325;-77
2021/05/14 09:04:02;;;;;;;;;;;;;;;16.26;63.33;99578.72;1750426;80;20655;-76
2021/05/14 09:06:37;;;;;;;;;;;;;;;16.34;63.30;99582.20;1722093;82;20193;-77
2021/05/14 09:09:07;;;;;;;;;;;;;;;16.41;63.29;99581.78;1744304;82;20257;-77
2021/05/14 09:11:38;;;;;;;;;;;;;;;16.53;63.34;99581.09;1754174;80;20266;-76
2021/05/14 09:14:06;;;;;;;;;;;;;;;16.65;63.11;99585.23;1744137;81;20268;-76
2021/05/14 09:16:42;;;;;;;;;;;;;;;16.65;63.03;99586.08;1752548;80;20280;-77
2021/05/14 09:19:10;;;;;;;;;;;;;;;16.65;63.13;99591.76;1744824;81;20185;-77
2021/05/14 09:21:37;;;;;;;;;;;;;;;16.71;63.06;99587.49;1742338;80;20259;-77
2021/05/14 09:24:04;;;;;;;;;;;;;;;16.74;63.08;99589.93;1755830;80;20190;-77
2021/05/14 09:26:31;;;;;;;;;;;;;;;16.76;62.90;99588.07;1752044;81;20165;-77
2021/05/14 09:28:58;;;;;;;;;;;;;;;16.83;63.08;99590.23;1749513;80;20160;-77
2021/05/14 09:31:29;;;;;;;;;;;;;;;16.93;62.97;99598.38;1746075;81;20467;-77
2021/05/14 09:33:57;;;;;;;;;;;;;;;17.05;63.04;99591.60;1753768;80;20479;-77
2021/05/14 09:36:30;;;;;;;;;;;;;;;17.17;62.89;99598.22;1743900;82;20197;-77
2021/05/14 09:38:59;;;;;;;;;;;;;;;17.28;62.88;99591.05;1754374;80;20199;-77
2021/05/14 09:41:30;;;;;;;;;;;;;;;17.33;62.82;99597.31;1745014;82;20528;-77
2021/05/14 09:44:06;;;;;;;;;;;;;;;17.36;62.67;99599.73;1750056;80;20184;-77
2021/05/14 09:46:35;;;;;;;;;;;;;;;17.34;62.65;99595.07;1743844;82;20185;-78
2021/05/14 09:49:07;;;;;;;;;;;;;;;17.20;62.64;99594.12;1748895;80;20203;-77
2021/05/14 09:51:34;;;;;;;;;;;;;;;17.19;62.69;99592.91;1737071;82;20501;-77
2021/05/14 09:54:26;;;;;;;;;;;;;;;17.20;62.76;99598.50;1750970;80;20159;-76
2021/05/14 10:00:00;;;;;;;;;;;;;;;17.17;62.65;99602.14;1744901;82;20178;-77
2021/05/14 10:02:33;;;;;;;;;;;;;;;17.12;62.74;99606.83;1746136;80;20207;-77
2021/05/14 10:05:01;;;;;;;;;;;;;;;17.14;62.73;99604.96;1741802;82;20194;-76
2021/05/14 10:07:28;;;;;;;;;;;;;;;17.10;62.64;99613.07;1745979;80;20146;-76
2021/05/14 10:09:58;;;;;;;;;;;;;;;17.03;62.57;99616.97;1717612;83;20149;-76
2021/05/14 10:12:23;;;;;;;;;;;;;;;16.98;62.65;99613.32;1723390;82;20142;-76
2021/05/14 10:14:51;;;;;;;;;;;;;;;17.03;62.67;99611.28;1746531;80;20227;-76
2021/05/14 10:17:18;;;;;;;;;;;;;;;17.03;62.62;99611.28;1749202;80;20203;-76
2021/05/14 10:19:46;;;;;;;;;;;;;;;17.08;62.70;99600.10;1745396;82;20149;-76
2021/05/14 10:22:13;;;;;;;;;;;;;;;17.16;62.68;99600.92;1741479;82;20233;-77
2021/05/14 10:24:42;;;;;;;;;;;;;;;17.21;62.53;99603.64;1751457;80;20159;-76
2021/05/14 10:27:23;;;;;;;;;;;;;;;17.24;62.59;99602.62;1744747;82;20214;-77
2021/05/14 10:29:58;;;;;;;;;;;;;;;17.33;62.53;99598.62;1747740;80;20203;-77
2021/05/14 10:32:46;;;;;;;;;;;;;;;17.26;62.43;99606.45;1744818;82;20190;-76
2021/05/14 10:35:15;;;;;;;;;;;;;;;17.25;62.52;99609.52;1732303;82;20201;-77
2021/05/14 10:37:51;;;;;;;;;;;;;;;17.29;62.58;99611.02;1752417;80;21064;-77
2021/05/14 10:40:40;;;;;;;;;;;;;;;17.32;62.51;99604.77;1714966;83;20241;-77
2021/05/14 10:43:11;;;;;;;;;;;;;;;17.39;62.67;99612.63;1744391;82;20187;-77
2021/05/14 10:45:48;;;;;;;;;;;;;;;17.52;62.50;99612.27;1732057;80;20151;-77
2021/05/14 10:48:21;;;;;;;;;;;;;;;17.58;62.54;99613.66;1744783;82;20154;-76
2021/05/14 10:50:48;;;;;;;;;;;;;;;17.63;62.48;99611.15;1747811;80;20166;-77
2021/05/14 10:53:33;;;;;;;;;;;;;;;17.62;62.26;99615.16;1740615;82;20540;-76
2021/05/14 10:56:12;;;;;;;;;;;;;;;17.54;62.34;99623.47;1746918;80;20297;-76
2021/05/14 10:58:46;;;;;;;;;;;;;;;17.47;62.29;99622.16;1741722;82;20278;-78
2021/05/14 11:01:33;;;;;;;;;;;;;;;17.40;62.38;99620.37;1746535;80;21764;-79
2021/05/14 11:04:02;;;;;;;;;;;;;;;17.29;62.25;99617.55;1742722;82;20280;-81
2021/05/14 11:06:41;;;;;;;;;;;;;;;17.25;62.31;99621.75;1739081;82;20185;-80
2021/05/14 11:09:11;;;;;;;;;;;;;;;17.19;62.36;99629.48;1735126;80;20282;-79
2021/05/14 11:12:01;;;;;;;;;;;;;;;17.17;62.23;99630.03;1744400;80;20252;-77
2021/05/14 11:14:45;;;;;;;;;;;;;;;17.15;62.26;99630.16;1738429;82;20261;-77
2021/05/14 11:17:12;;;;;;;;;;;;;;;17.24;62.48;99631.36;1740011;81;20582;-77
2021/05/14 11:19:54;;;;;;;;;;;;;;;17.38;62.44;99626.16;1748131;80;20319;-77
2021/05/14 11:22:26;;;;;;;;;;;;;;;17.46;62.37;99624.39;1742183;82;20399;-77
2021/05/14 11:24:56;;;;;;;;;;;;;;;17.49;62.29;99627.66;1746819;80;20147;-77
2021/05/14 11:27:27;;;;;;;;;;;;;;;17.43;62.25;99629.80;1743071;82;20157;-77
2021/05/14 11:29:55;;;;;;;;;;;;;;;17.43;62.23;99633.26;1747754;80;20234;-77
2021/05/14 11:32:31;;;;;;;;;;;;;;;17.45;62.43;99631.86;1744038;82;20186;-77
2021/05/14 11:35:00;;;;;;;;;;;;;;;17.50;62.43;99632.42;1742980;82;20209;-77
2021/05/14 11:37:29;;;;;;;;;;;;;;;17.57;62.51;99631.12;1754781;80;20165;-77
2021/05/14 11:39:56;;;;;;;;;;;;;;;17.72;62.39;99641.96;1746226;82;20782;-76
2021/05/14 11:42:24;;;;;;;;;;;;;;;17.81;62.37;99634.86;1734144;80;20193;-77
2021/05/14 11:45:01;;;;;;;;;;;;;;;17.89;62.32;99640.09;1745059;82;20161;-77
2021/05/14 11:47:33;;;;;;;;;;;;;;;17.91;62.22;99642.98;1734876;81;20186;-76
2021/05/14 11:49:59;;;;;;;;;;;;;;;17.93;62.19;99645.04;1730217;81;20286;-77
2021/05/14 11:52:42;;;;;;;;;;;;;;;17.94;62.04;99648.03;1736858;81;20165;-77
2021/05/14 11:55:13;;;;;;;;;;;;;;;17.89;61.93;99651.39;1741628;81;20185;-77
2021/05/14 11:57:40;;;;;;;;;;;;;;;17.86;62.08;99652.89;1741486;80;20207;-76
2021/05/14 12:00:08;;;;;;;;;;;;;;;17.80;62.01;99654.57;1758895;79;20176;-76
2021/05/14 12:02:43;;;;;;;;;;;;;;;17.73;61.98;99656.72;1742596;82;20230;-77
2021/05/14 12:05:13;;;;;;;;;;;;;;;17.66;62.09;99659.36;1742800;80;20186;-81
2021/05/14 12:07:41;;;;;;;;;;;;;;;17.58;61.96;99664.17;1740103;80;20202;-77
2021/05/14 12:10:09;;;;;;;;;;;;;;;17.44;62.02;99668.91;1733476;80;20165;-77
2021/05/14 12:12:39;;;;;;;;;;;;;;;17.39;61.99;99673.57;1746866;81;20195;-77
2021/05/14 12:15:18;;;;;;;;;;;;;;;17.35;62.19;99670.77;1744073;82;20166;-77
2021/05/14 12:17:45;;;;;;;;;;;;;;;17.33;62.24;99670.48;1746906;80;20195;-77
2021/05/14 12:20:17;;;;;;;;;;;;;;;17.28;62.18;99673.82;1742515;80;20179;-77
2021/05/14 12:22:46;;;;;;;;;;;;;;;17.32;62.26;99679.25;1737327;82;20166;-77
2021/05/14 12:25:13;;;;;;;;;;;;;;;17.33;62.23;99676.55;1754498;80;20165;-76
2021/05/14 12:27:40;;;;;;;;;;;;;;;17.32;62.22;99681.39;1741485;81;20173;-76
2021/05/14 12:30:09;;;;;;;;;;;;;;;17.27;62.10;99683.44;1741661;80;20221;-76
2021/05/14 12:32:36;;;;;;;;;;;;;;;17.25;62.04;99684.45;1744357;80;20166;-76
2021/05/14 12:35:05;;;;;;;;;;;;;;;17.16;62.12;99689.74;1746860;80;20197;-76
2021/05/14 12:37:31;;;;;;;;;;;;;;;17.12;62.17;99694.34;1739956;80;20168;-77
2021/05/14 12:39:57;;;;;;;;;;;;;;;17.10;61.98;99697.97;1745588;80;20173;-77
2021/05/14 12:42:30;;;;;;;;;;;;;;;16.93;61.94;99700.23;1750999;80;20759;-77
2021/05/14 12:44:59;;;;;;;;;;;;;;;16.86;62.15;99706.72;1752442;80;20158;-77
2021/05/14 12:47:28;;;;;;;;;;;;;;;16.81;62.21;99708.75;1756297;80;20198;-77
2021/05/14 12:49:56;;;;;;;;;;;;;;;16.73;62.17;99705.27;1744727;81;20195;-77
2021/05/14 12:52:25;;;;;;;;;;;;;;;16.70;62.19;99713.73;1754134;80;20182;-77
2021/05/14 12:55:14;;;;;;;;;;;;;;;16.60;62.09;99713.39;1708501;82;20156;-77
2021/05/14 12:57:52;;;;;;;;;;;;;;;16.57;62.32;99717.94;1714085;82;20156;-77
2021/05/14 13:00:28;;;;;;;;;;;;;;;16.54;62.44;99726.31;1704156;83;20192;-77
2021/05/14 13:03:00;;;;;;;;;;;;;;;16.69;62.48;99726.40;1717277;82;20192;-77